Latest Coastal Weather Observations for Bedout Island

IDW60701

Issued at 4:05 pm WST Sunday 21 September 2014 (issued every 10 minutes, with the page automatically refreshed every 10 minutes)

About coastal observations | Map of coastal stations | Coastal observations for WA | Marine services | Other Formats
Station Details ID: 004100 Name: BEDOUT ISLAND Lat: -19.59 Lon: 119.10 Height: 8.6 m
Data from the previous 72 hours. | See also: Recent months for locations in Western Australia
Date/Time
WST
Temp

°C
Wind Pressure Rain
since 9am
mm
Weather Cloud Vis
km
Sea
Height
m
Swell
Dir
 
Speed
knots
Gust
knots
hPa Trend Height
m
Period
s
Dir
21/04:00pm 28.0 W 18 19 1012.5 - - - - - - - - -
21/03:30pm 28.7 W 18 21 1012.6 - - - - - - - - -
21/03:00pm 29.2 WSW 18 21 1012.5 - - - - - - - - -
21/02:30pm 29.2 WSW 18 20 1013.0 - - - - - - - - -
21/02:00pm 29.2 WSW 18 20 1013.0 - - - - - - - - -
21/01:30pm 29.9 W 17 20 1013.7 - - - - - - - - -
21/01:00pm 30.1 W 15 17 1014.3 - - - - - - - - -
21/12:30pm 29.7 WSW 15 16 1014.5 - - - - - - - - -
21/12:00pm 29.8 WSW 14 16 1014.9 - - - - - - - - -
21/11:30am 29.3 WSW 15 17 1015.5 - - - - - - - - -
21/11:00am 28.7 W 17 19 1016.1 - - - - - - - - -
21/10:30am 28.8 W 15 17 1016.5 - - - - - - - - -
21/10:00am 28.6 W 14 16 1016.6 - - - - - - - - -
21/09:30am 28.5 W 13 16 1016.4 - - - - - - - - -
21/09:00am 27.6 SW 19 24 1015.6 - - - - - - - - -
21/08:30am 27.1 SW 19 22 1015.7 - - - - - - - - -
21/08:00am 26.5 WSW 19 21 1015.6 - - - - - - - - -
21/07:30am 25.8 WSW 18 21 1015.2 - - - - - - - - -
21/07:00am 25.1 WSW 17 20 1014.8 - - - - - - - - -
21/06:30am 24.8 WSW 16 19 1014.5 - - - - - - - - -
21/06:00am 24.4 WSW 17 19 1014.0 - - - - - - - - -
21/05:30am 23.9 WSW 14 17 1013.8 - - - - - - - - -
21/05:00am 24.3 SW 17 20 1013.5 - - - - - - - - -
21/04:30am 24.4 SW 18 20 1013.1 - - - - - - - - -
21/04:00am 24.3 SW 16 19 1013.0 - - - - - - - - -
21/03:30am 24.3 SW 17 19 1013.0 - - - - - - - - -
21/03:00am 24.2 SW 14 16 1013.0 - - - - - - - - -
21/02:30am 24.2 SW 16 20 1012.9 - - - - - - - - -
21/02:00am 24.3 SW 15 17 1013.3 - - - - - - - - -
21/01:30am 24.4 SSW 12 14 1013.6 - - - - - - - - -
21/01:00am 24.6 WSW 13 15 1013.2 - - - - - - - - -
21/12:30am 24.6 WSW 13 16 1013.5 - - - - - - - - -
21/12:00am 24.8 WSW 16 19 1013.4 - - - - - - - - -
 
Date/Time
WST
Temp

°C
Wind Pressure Rain
since 9am
mm
Weather Cloud Vis
km
Sea
Height
m
Swell
Dir
 
Speed
knots
Gust
knots
hPa Trend Height
m
Period
s
Dir
20/11:30pm 25.0 WSW 19 22 1013.5 - - - - - - - - -
20/11:00pm 25.2 WSW 21 24 1013.7 - - - - - - - - -
20/10:30pm 25.1 WSW 21 24 1014.0 - - - - - - - - -
20/10:00pm 25.1 WSW 18 20 1014.5 - - - - - - - - -
20/09:30pm 25.2 WSW 17 19 1014.5 - - - - - - - - -
20/09:00pm 25.0 W 14 16 1014.6 - - - - - - - - -
20/08:30pm 25.3 W 15 17 1014.5 - - - - - - - - -
20/08:00pm 25.6 WSW 18 20 1014.3 - - - - - - - - -
20/07:30pm 25.6 W 18 19 1013.9 - - - - - - - - -
20/07:00pm 25.5 W 14 15 1013.7 - - - - - - - - -
20/06:30pm 25.6 W 14 15 1013.4 - - - - - - - - -
20/06:00pm 25.8 W 13 14 1012.8 - - - - - - - - -
20/05:30pm 26.7 W 14 16 1012.5 - - - - - - - - -
20/05:00pm 27.6 W 14 16 1012.4 - - - - - - - - -
20/04:30pm 28.6 W 13 15 1012.2 - - - - - - - - -
20/04:00pm 29.0 W 13 15 1012.2 - - - - - - - - -
20/03:30pm 30.5 W 9 11 1011.9 - - - - - - - - -
20/03:00pm 30.6 W 9 11 1011.9 - - - - - - - - -
20/02:30pm 30.7 WSW 9 11 1012.0 - - - - - - - - -
20/02:00pm 29.5 W 9 10 1012.5 - - - - - - - - -
20/01:30pm 30.4 W 9 10 1012.9 - - - - - - - - -
20/01:00pm 29.8 W 8 9 1013.2 - - - - - - - - -
20/12:30pm 30.2 W 6 7 1013.8 - - - - - - - - -
20/12:00pm 29.7 W 5 6 1014.1 - - - - - - - - -
20/11:30am 30.3 SW 5 6 1014.7 - - - - - - - - -
20/11:00am 30.0 S 6 8 1015.1 - - - - - - - - -
20/10:30am 29.1 SSE 6 7 1015.4 - - - - - - - - -
20/10:00am 29.2 SE 5 6 1015.7 - - - - - - - - -
20/09:30am 28.8 SE 6 7 1015.9 - - - - - - - - -
20/09:00am 28.5 S 6 7 1015.9 - - - - - - - - -
20/08:30am 27.4 SSW 5 6 1015.9 - - - - - - - - -
20/08:00am 26.4 WSW 4 5 1015.7 - - - - - - - - -
20/07:30am 25.6 WSW 3 4 1015.4 - - - - - - - - -
20/07:00am 24.3 WSW 3 4 1015.1 - - - - - - - - -
20/06:30am 23.6 WSW 5 5 1014.7 - - - - - - - - -
20/06:00am 23.3 SSW 7 10 1014.2 - - - - - - - - -
20/05:30am 23.7 SW 8 13 1013.9 - - - - - - - - -
20/05:00am 24.0 SW 15 17 1012.8 - - - - - - - - -
20/04:30am 24.2 W 14 16 1012.8 - - - - - - - - -
20/04:00am 24.6 W 17 19 1012.7 - - - - - - - - -
20/03:30am 24.0 WNW 12 15 1012.9 - - - - - - - - -
20/03:00am 24.1 NW 6 9 1013.1 - - - - - - - - -
20/02:30am 23.1 NW 7 11 1013.5 - - - - - - - - -
20/02:00am 24.2 SSW 13 15 1013.2 - - - - - - - - -
20/01:30am 24.2 SW 13 15 1013.4 - - - - - - - - -
20/01:00am 24.2 SW 13 15 1013.7 - - - - - - - - -
20/12:30am 24.4 WSW 13 15 1013.9 - - - - - - - - -
20/12:00am 24.4 WSW 13 15 1014.2 - - - - - - - - -
 
Date/Time
WST
Temp

°C
Wind Pressure Rain
since 9am
mm
Weather Cloud Vis
km
Sea
Height
m
Swell
Dir
 
Speed
knots
Gust
knots
hPa Trend Height
m
Period
s
Dir
19/11:30pm 24.4 WSW 15 17 1014.5 - - - - - - - - -
19/11:00pm 24.6 WSW 15 16 1014.8 - - - - - - - - -
19/10:30pm 24.5 WNW 13 15 1015.3 - - - - - - - - -
19/10:00pm 24.8 W 10 11 1015.4 - - - - - - - - -
19/09:30pm 25.0 W 11 13 1015.5 - - - - - - - - -
19/09:00pm 25.4 W 14 15 1015.2 - - - - - - - - -
19/08:30pm 25.0 W 10 11 1015.2 - - - - - - - - -
19/08:00pm 25.4 W 8 10 1015.0 - - - - - - - - -
19/07:30pm 25.4 WSW 9 11 1014.6 - - - - - - - - -
19/07:00pm 25.4 WSW 8 9 1014.2 - - - - - - - - -
19/06:30pm 25.7 WSW 8 9 1013.7 - - - - - - - - -
19/06:00pm 26.3 WSW 8 9 1013.3 - - - - - - - - -
19/05:30pm 27.7 WSW 8 9 1013.2 - - - - - - - - -
19/05:00pm 28.7 WSW 7 8 1013.0 - - - - - - - - -
19/04:30pm 29.4 W 7 8 1012.8 - - - - - - - - -
19/04:00pm 29.7 W 6 8 1012.7 - - - - - - - - -
19/03:30pm 29.9 W 6 7 1012.8 - - - - - - - - -
19/03:00pm 29.5 W 6 7 1012.9 - - - - - - - - -
19/02:30pm 29.4 WNW 6 7 1013.2 - - - - - - - - -
19/02:00pm 29.5 WNW 6 7 1013.4 - - - - - - - - -
19/01:30pm 29.6 WNW 6 7 1013.8 - - - - - - - - -
19/01:00pm 29.0 W 6 7 1014.2 - - - - - - - - -
19/12:30pm 29.0 WSW 6 7 1014.4 - - - - - - - - -
19/12:00pm 29.0 W 6 8 1014.6 - - - - - - - - -
19/11:30am 28.3 WSW 6 7 1015.1 - - - - - - - - -
19/11:00am 28.8 SW 6 7 1015.6 - - - - - - - - -
19/10:30am 28.1 SSW 7 8 1016.0 - - - - - - - - -
19/10:00am 27.4 SW 7 8 1016.3 - - - - - - - - -
19/09:30am 27.5 SW 7 8 1016.5 - - - - - - - - -
19/09:00am 27.0 SW 8 9 1016.3 - - - - - - - - -
19/08:30am 26.4 SW 8 9 1016.4 - - - - - - - - -
19/08:00am 25.5 SW 9 10 1016.3 - - - - - - - - -
19/07:30am 24.6 SW 9 10 1016.0 - - - - - - - - -
19/07:00am 23.9 SW 9 10 1015.7 - - - - - - - - -
19/06:30am 23.2 WSW 7 8 1015.3 - - - - - - - - -
19/06:00am 22.8 WSW 7 8 1014.8 - - - - - - - - -
19/05:30am 23.0 WSW 7 9 1014.6 - - - - - - - - -
19/05:00am 23.1 WSW 9 11 1014.3 - - - - - - - - -
19/04:30am 23.1 WSW 10 11 1014.0 - - - - - - - - -
19/04:00am 23.2 WSW 11 12 1013.8 - - - - - - - - -
19/03:30am 23.4 WSW 11 13 1013.7 - - - - - - - - -
19/03:00am 23.3 WSW 12 13 1013.7 - - - - - - - - -
19/02:30am 23.4 SW 12 14 1013.9 - - - - - - - - -
19/02:00am 23.5 WSW 12 13 1014.0 - - - - - - - - -
19/01:30am 23.5 WSW 12 13 1014.1 - - - - - - - - -
19/01:00am 23.4 W 10 11 1014.3 - - - - - - - - -
19/12:30am 23.4 W 10 11 1014.5 - - - - - - - - -
19/12:00am 23.6 W 10 12 1014.8 - - - - - - - - -
 
Date/Time
WST
Temp

°C
Wind Pressure Rain
since 9am
mm
Weather Cloud Vis
km
Sea
Height
m
Swell
Dir
 
Speed
knots
Gust
knots
hPa Trend Height
m
Period
s
Dir
18/11:30pm 23.6 W 10 11 1015.1 - - - - - - - - -
18/11:00pm 23.7 W 11 13 1015.3 - - - - - - - - -
18/10:30pm 23.7 W 11 13 1015.5 - - - - - - - - -
18/10:00pm 23.8 W 12 14 1015.6 - - - - - - - - -
18/09:30pm 23.7 W 11 13 1015.6 - - - - - - - - -
18/09:00pm 23.8 W 11 13 1015.4 - - - - - - - - -
18/08:30pm 23.7 W 11 13 1015.4 - - - - - - - - -
18/08:00pm 23.9 W 11 13 1015.3 - - - - - - - - -
18/07:30pm 24.0 W 11 13 1014.9 - - - - - - - - -
18/07:00pm 24.0 W 11 13 1014.7 - - - - - - - - -
18/06:30pm 24.2 W 12 14 1014.4 - - - - - - - - -
18/06:00pm 24.5 W 12 13 1013.9 - - - - - - - - -
18/05:30pm 25.2 W 11 13 1013.7 - - - - - - - - -
18/05:00pm 26.0 W 11 13 1013.3 - - - - - - - - -
18/04:30pm 26.8 W 11 13 1013.2 - - - - - - - - -

Other Formats:

Comma delimited format used in spreadsheet applications
http://www.bom.gov.au/fwo/IDW60701/IDW60701.94310.axf

JavaScript Object Notation format (JSON) in row-major order
http://www.bom.gov.au/fwo/IDW60701/IDW60701.94310.json